West Brooklyn, IL (61378)

10:35 PM CDT on September 02, 2015 (GMT -0500)
KILSUBLE2 | | Change Station
CLOSE
Current Station
Personal Weather Station
Location: Sublette, IL
Elevation: 927 ft
Nearby Weather Stations

Elev 927 ft 41.65 °N, 89.23 °W | Updated 3 seconds ago

Partly Cloudy
Partly Cloudy
75.3 °F
Feels Like 76 °F
N
4.5
Wind Variable Wind from SSE
Gusts 5.8 mph

Today
High -- | Low -- °F
--% Chance of Precip.
Yesterday
High -- | Low -- °F
Precip. -- in
6:23 AM 7:28 PM
Waning Gibbous, 74% visible
Pressure 29.98 in
Visibility 10.0 miles
Clouds Mostly Cloudy 10000 ft
Heat Index 76 °F
Dew Point 70 °F
Humidity 83%
Rainfall 0.00 in
Snow Depth Not available.
UV 0 out of 12
Pollen 10.60 out of 12
Air Quality Not available.
Flu Activity Not available.
METAR KRPJ 030315Z AUTO 19004KT 10SM BKN100 22/21 A2998 RMK AO2 T02190207
Pressure 29.98 in
Visibility 10.0 miles
Clouds Mostly Cloudy 10000 ft
Heat Index 76 °F
Dew Point 70 °F
Humidity 83%
Rainfall 0.00 in
Snow Depth Not available.
UV 0 out of 12
Pollen 10.60 out of 12
Air Quality Not available.
Flu Activity Not available.
METAR KRPJ 030315Z AUTO 19004KT 10SM BKN100 22/21 A2998 RMK AO2 T02190207

10-Day Weather Forecast

×

Almanac

Astronomy

Sep. 02, 2015 Rise Set
Actual Time
Civil Twilight
Nautical Twilight
Astronomical Twilight
Moon
Length of Visible Light
Length of Day
Tomorrow will be .
, % of the Moon is Illuminated

Today's Extremes

State Highs State Lows

Community

WunderPhotos

Upload Photos

1,851,902 photos uploaded!

WunderBlogs® & News

Nearby

Air Quality

  Air Quality AQ Index Pollutant
Not available.

Snow Depth

Station Depth Elevation

Earthquake Activity

City Distance Mag. Time & Date
Minimum magnitude displayed is 2.5.

Coastal Water Temperatures

Place Temperature

Stations

Nearby Weather Stations

Station Location Temp. Windchill Dew Point Humidity Wind Precip. Elev Updated Type